Terminal Aerodrome Forecast
Issued by NWS

Home | Current Version | Previous Version | Graphics & Text | Print | Product List | Glossary On
Versions: 1 2 3 4 5 6 7 8 9 10 11 12 13 14 15 16 17 18 19 20 21 22 23 24
841
FTUS42 KMHX 310724 AAB
TAFISO
TAF AMD
KISO 310724Z 3107/0106 VRB03KT 1/2SM FG OVC002
     FM311400 04005KT P6SM VCSH SCT008 OVC025
     FM311700 06008KT 5SM SHRA OVC025
     FM010000 08006KT P6SM OVC050
      AMD LTD TO CLD VIS AND WIND=

USA.gov is the U.S. government's official web portal to all federal, state and local government web resources and services.